createdAt,value
2017-02-21T00:00:47.334Z,0
2017-02-21T00:03:11.693Z,0
2017-02-21T00:05:35.354Z,0
2017-02-21T00:07:58.561Z,0
2017-02-21T00:10:22.954Z,0
2017-02-21T00:14:49.773Z,0
2017-02-21T00:17:13.310Z,0
2017-02-21T00:19:36.763Z,0
2017-02-21T00:22:00.189Z,0
2017-02-21T00:24:23.720Z,0
2017-02-21T00:26:48.128Z,0
2017-02-21T00:29:20.325Z,0
2017-02-21T00:31:46.581Z,0
2017-02-21T00:34:13.751Z,0
2017-02-21T00:36:40.118Z,0
2017-02-21T00:39:04.573Z,0
2017-02-21T00:43:06.591Z,0
2017-02-21T00:45:30.013Z,0
2017-02-21T00:47:53.560Z,0
2017-02-21T00:50:17.016Z,0
2017-02-21T00:52:40.230Z,0
2017-02-21T00:55:03.571Z,0
2017-02-21T00:57:18.705Z,0
2017-02-21T00:59:43.674Z,0
2017-02-21T01:02:07.267Z,0
2017-02-21T01:04:30.722Z,0
2017-02-21T01:06:55.029Z,0
2017-02-21T01:09:27.013Z,0
2017-02-21T01:11:50.461Z,0
2017-02-21T01:14:14.020Z,0
2017-02-21T01:16:38.501Z,0
2017-02-21T01:19:01.913Z,0
2017-02-21T01:21:25.399Z,0
2017-02-21T01:23:48.793Z,0
2017-02-21T01:26:14.040Z,0
2017-02-21T01:28:40.845Z,0
2017-02-21T01:31:05.323Z,0
2017-02-21T01:35:05.293Z,0
2017-02-21T01:37:29.833Z,0
2017-02-21T01:39:53.214Z,0
2017-02-21T01:42:17.762Z,0
2017-02-21T01:44:41.428Z,0
2017-02-21T01:47:04.759Z,0
2017-02-21T01:49:28.093Z,0
2017-02-21T01:51:51.676Z,0
2017-02-21T01:54:16.133Z,0
2017-02-21T01:56:40.111Z,0
2017-02-21T01:59:04.401Z,0
2017-02-21T02:01:27.829Z,0
2017-02-21T02:03:52.338Z,0
2017-02-21T02:06:16.815Z,0
2017-02-21T02:08:40.641Z,0
2017-02-21T02:11:05.588Z,0
2017-02-21T02:13:29.299Z,0
2017-02-21T02:15:52.984Z,0
2017-02-21T02:18:17.625Z,0
2017-02-21T02:20:41.539Z,0
2017-02-21T02:23:05.090Z,0
2017-02-21T02:25:28.483Z,0
2017-02-21T02:27:51.912Z,0
2017-02-21T02:30:16.390Z,0
2017-02-21T02:32:40.428Z,0
2017-02-21T02:35:04.185Z,0
2017-02-21T02:37:27.984Z,0
2017-02-21T02:39:51.696Z,0
2017-02-21T02:42:15.449Z,0
2017-02-21T02:44:40.997Z,0
2017-02-21T02:47:05.365Z,0
2017-02-21T02:49:28.685Z,0
2017-02-21T02:51:53.253Z,0
2017-02-21T02:54:17.650Z,0
2017-02-21T02:56:41.209Z,0
2017-02-21T02:59:06.664Z,0
2017-02-21T03:01:30.213Z,0
2017-02-21T03:03:53.883Z,0
2017-02-21T03:06:18.436Z,0
2017-02-21T03:08:42.083Z,0
2017-02-21T03:11:05.539Z,0
2017-02-21T03:13:38.042Z,0
2017-02-21T03:16:02.569Z,0
2017-02-21T03:18:25.999Z,0
2017-02-21T03:20:49.753Z,0
2017-02-21T03:23:15.212Z,0
2017-02-21T03:25:31.351Z,0
2017-02-21T03:27:56.763Z,0
2017-02-21T03:30:20.491Z,0
2017-02-21T03:32:43.994Z,0
2017-02-21T03:35:08.454Z,0
2017-02-21T03:37:31.867Z,0
2017-02-21T03:39:55.432Z,0
2017-02-21T03:42:18.982Z,0
2017-02-21T03:44:42.393Z,0
2017-02-21T03:47:05.841Z,0
2017-02-21T03:49:29.209Z,0
2017-02-21T03:51:52.601Z,0
2017-02-21T03:54:16.771Z,0
2017-02-21T03:56:42.334Z,0
2017-02-21T03:59:05.802Z,0
2017-02-21T04:01:29.378Z,0
2017-02-21T04:03:52.627Z,0
2017-02-21T04:06:16.235Z,0
2017-02-21T04:08:39.672Z,0
2017-02-21T04:11:04.043Z,0
2017-02-21T04:13:29.558Z,0
2017-02-21T04:15:52.928Z,0
2017-02-21T04:18:17.338Z,0
2017-02-21T04:20:40.615Z,0
2017-02-21T04:23:04.751Z,0
2017-02-21T04:25:28.372Z,0
2017-02-21T04:27:51.876Z,0
2017-02-21T04:30:15.307Z,0
2017-02-21T04:32:38.875Z,0
2017-02-21T04:35:02.516Z,0
2017-02-21T04:37:25.866Z,0
2017-02-21T04:39:50.225Z,0
2017-02-21T04:43:51.223Z,0
2017-02-21T04:46:14.764Z,0
2017-02-21T04:48:40.243Z,0
2017-02-21T04:51:04.402Z,0
2017-02-21T04:53:31.423Z,0
2017-02-21T04:55:55.919Z,0
2017-02-21T04:58:20.620Z,0
2017-02-21T05:00:45.354Z,0
2017-02-21T05:03:08.873Z,0
2017-02-21T05:05:33.998Z,0
2017-02-21T05:08:00.443Z,0
2017-02-21T05:10:16.841Z,0
2017-02-21T05:12:40.728Z,0
2017-02-21T05:15:04.176Z,0
2017-02-21T05:17:29.583Z,0
2017-02-21T05:19:54.085Z,0
2017-02-21T05:22:17.572Z,0
2017-02-21T05:24:41.087Z,0
2017-02-21T05:27:06.551Z,0
2017-02-21T05:29:31.248Z,0
2017-02-21T05:31:54.720Z,0
2017-02-21T05:34:19.046Z,0
2017-02-21T05:36:42.395Z,0
2017-02-21T05:39:06.883Z,0
2017-02-21T05:41:30.351Z,0
2017-02-21T05:43:53.725Z,0
2017-02-21T05:46:17.325Z,0
2017-02-21T05:48:40.906Z,0
2017-02-21T05:51:04.253Z,0
2017-02-21T05:55:38.127Z,0
2017-02-21T05:58:02.906Z,0
2017-02-21T06:00:26.284Z,0
2017-02-21T06:02:49.708Z,0
2017-02-21T06:05:13.002Z,0
2017-02-21T06:07:36.487Z,0
2017-02-21T06:10:00.265Z,0
2017-02-21T06:12:23.780Z,0
2017-02-21T06:14:46.994Z,0
2017-02-21T06:17:26.362Z,0
2017-02-21T06:19:57.748Z,0
2017-02-21T06:22:21.260Z,0
2017-02-21T06:24:45.213Z,0
2017-02-21T06:27:08.368Z,0
2017-02-21T06:29:31.801Z,0
2017-02-21T06:31:57.079Z,0
2017-02-21T06:34:20.633Z,0
2017-02-21T06:36:45.001Z,0
2017-02-21T06:39:08.414Z,0
2017-02-21T06:41:31.853Z,0
2017-02-21T06:43:55.265Z,0
2017-02-21T06:50:31.489Z,0
2017-02-21T06:52:54.690Z,0
2017-02-21T06:55:09.678Z,0
2017-02-21T06:57:33.027Z,0
2017-02-21T06:59:56.372Z,0
2017-02-21T07:02:19.967Z,0
2017-02-21T07:04:43.492Z,0
2017-02-21T07:10:21.084Z,0
2017-02-21T07:12:44.601Z,0
2017-02-21T07:15:08.267Z,0
2017-02-21T07:17:31.564Z,0
2017-02-21T07:19:56.174Z,0
2017-02-21T07:22:19.800Z,0
2017-02-21T07:24:44.439Z,0
2017-02-21T07:27:09.641Z,0
2017-02-21T07:29:32.947Z,0
2017-02-21T07:31:56.292Z,0
2017-02-21T07:34:19.580Z,0
2017-02-21T07:36:43.382Z,0
2017-02-21T07:39:06.824Z,5
2017-02-21T07:41:30.140Z,5
2017-02-21T07:44:05.925Z,5
2017-02-21T07:56:02.874Z,5
2017-02-21T07:58:26.111Z,5
2017-02-21T08:00:49.452Z,10
2017-02-21T08:03:12.762Z,10
2017-02-21T08:07:46.110Z,10
2017-02-21T08:10:09.447Z,10
2017-02-21T08:12:32.684Z,10
2017-02-21T08:14:55.997Z,10
2017-02-21T08:17:19.300Z,15
2017-02-21T08:19:42.846Z,20
2017-02-21T08:22:07.058Z,20
2017-02-21T08:24:30.797Z,15
2017-02-21T08:26:54.143Z,15
2017-02-21T08:29:18.596Z,15
2017-02-21T08:31:42.092Z,15
2017-02-21T08:34:07.262Z,15
2017-02-21T08:36:37.462Z,15
2017-02-21T08:39:01.227Z,10
2017-02-21T08:41:24.551Z,10
2017-02-21T08:43:48.619Z,10
2017-02-21T08:46:12.620Z,10
2017-02-21T08:48:35.915Z,10
2017-02-21T08:51:00.148Z,15
2017-02-21T08:53:23.574Z,15
2017-02-21T08:55:47.138Z,15
2017-02-21T08:58:10.611Z,15
2017-02-21T09:00:35.106Z,20
2017-02-21T09:02:58.454Z,15
2017-02-21T09:05:22.395Z,15
2017-02-21T09:07:45.887Z,20
2017-02-21T09:10:10.102Z,30
2017-02-21T09:12:33.589Z,25
2017-02-21T09:14:57.316Z,15
2017-02-21T09:17:26.344Z,15
2017-02-21T09:19:53.487Z,20
2017-02-21T09:29:32.138Z,25
2017-02-21T09:31:55.548Z,20
2017-02-21T09:34:19.398Z,25
2017-02-21T09:36:43.624Z,45
2017-02-21T09:39:08.643Z,60
2017-02-21T09:41:32.347Z,45
2017-02-21T09:43:55.865Z,35
2017-02-21T09:46:19.443Z,25
2017-02-21T09:48:43.091Z,30
2017-02-21T09:51:06.957Z,40
2017-02-21T09:53:31.818Z,60
2017-02-21T09:55:57.417Z,60
2017-02-21T09:58:29.080Z,50
2017-02-21T10:00:53.289Z,30
2017-02-21T10:03:17.206Z,25
2017-02-21T10:05:40.254Z,20
2017-02-21T10:08:04.673Z,30
2017-02-21T10:10:28.290Z,25
2017-02-21T10:12:51.903Z,25
2017-02-21T10:15:15.427Z,20
2017-02-21T10:17:38.890Z,20
2017-02-21T10:20:02.462Z,20
2017-02-21T10:24:37.566Z,20
2017-02-21T10:27:02.172Z,20
2017-02-21T10:29:30.907Z,25
2017-02-21T10:31:56.257Z,25
2017-02-21T10:34:24.635Z,30
2017-02-21T10:36:50.166Z,30
2017-02-21T10:39:22.737Z,40
2017-02-21T10:41:49.798Z,55
2017-02-21T10:44:15.735Z,45
2017-02-21T10:46:42.661Z,45
2017-02-21T10:49:07.689Z,45
2017-02-21T10:51:33.555Z,50
2017-02-21T10:54:05.165Z,50
2017-02-21T10:56:30.513Z,65
2017-02-21T10:58:55.165Z,60
2017-02-21T11:01:10.403Z,45
2017-02-21T11:03:34.191Z,45
2017-02-21T11:05:57.801Z,55
2017-02-21T11:08:21.734Z,55
2017-02-21T11:10:45.602Z,55
2017-02-21T11:13:09.383Z,55
2017-02-21T11:15:34.390Z,50
2017-02-21T11:17:59.095Z,55
2017-02-21T11:20:22.809Z,40
2017-02-21T11:22:46.301Z,35
2017-02-21T11:25:09.875Z,45
2017-02-21T11:27:35.484Z,45
2017-02-21T11:30:01.269Z,35
2017-02-21T11:32:25.086Z,40
2017-02-21T11:34:49.710Z,45
2017-02-21T11:37:13.256Z,45
2017-02-21T11:39:36.931Z,45
2017-02-21T11:42:00.543Z,45
2017-02-21T11:46:26.178Z,30
2017-02-21T11:48:50.235Z,45
2017-02-21T11:51:15.844Z,50
2017-02-21T11:53:41.448Z,45
2017-02-21T11:56:05.223Z,55
2017-02-21T11:58:28.768Z,60
2017-02-21T12:00:52.545Z,55
2017-02-21T12:03:16.088Z,60
2017-02-21T12:05:39.986Z,60
2017-02-21T12:08:04.737Z,60
2017-02-21T12:10:28.554Z,60
2017-02-21T12:12:52.750Z,60
2017-02-21T12:15:17.415Z,55
2017-02-21T12:17:41.137Z,55
2017-02-21T12:21:40.692Z,55
2017-02-21T12:23:56.121Z,55
2017-02-21T12:26:21.494Z,60
2017-02-21T12:28:45.414Z,60
2017-02-21T12:31:09.054Z,65
2017-02-21T12:33:32.761Z,50
2017-02-21T12:35:56.379Z,50
2017-02-21T12:38:19.962Z,55
2017-02-21T12:40:44.647Z,50
2017-02-21T12:43:08.549Z,50
2017-02-21T12:45:33.404Z,45
2017-02-21T12:47:57.126Z,40
2017-02-21T12:50:20.701Z,40
2017-02-21T12:52:44.668Z,40
2017-02-21T12:55:08.282Z,35
2017-02-21T12:57:31.922Z,30
2017-02-21T12:59:55.881Z,25
2017-02-21T13:02:26.731Z,30
2017-02-21T13:04:51.688Z,30
2017-02-21T13:07:16.907Z,35
2017-02-21T13:09:41.683Z,35
2017-02-21T13:12:07.246Z,35
2017-02-21T13:14:32.109Z,30
2017-02-21T13:16:55.546Z,25
2017-02-21T13:19:19.474Z,30
2017-02-21T13:21:43.243Z,30
2017-02-21T13:24:06.701Z,25
2017-02-21T13:26:30.370Z,20
2017-02-21T13:28:54.826Z,25
2017-02-21T13:31:19.509Z,25
2017-02-21T13:33:43.251Z,20
2017-02-21T13:36:06.844Z,25
2017-02-21T13:38:31.455Z,25
2017-02-21T13:42:31.742Z,30
2017-02-21T13:44:55.483Z,30
2017-02-21T13:47:19.035Z,30
2017-02-21T13:49:42.759Z,30
2017-02-21T13:52:07.478Z,25
2017-02-21T13:54:31.133Z,20
2017-02-21T13:56:55.900Z,20
2017-02-21T13:59:20.451Z,25
2017-02-21T14:01:44.175Z,25
2017-02-21T14:04:07.803Z,25
2017-02-21T14:08:34.028Z,20
2017-02-21T14:10:57.699Z,20
2017-02-21T14:13:21.277Z,20
2017-02-21T14:15:45.567Z,15
2017-02-21T14:18:09.079Z,10
2017-02-21T14:20:32.640Z,10
2017-02-21T14:22:56.366Z,10
2017-02-21T14:25:20.787Z,10
2017-02-21T14:27:44.552Z,10
2017-02-21T14:30:08.242Z,10
2017-02-21T14:32:32.060Z,10
2017-02-21T14:34:57.176Z,10
2017-02-21T14:37:20.955Z,10
2017-02-21T14:41:46.974Z,20
2017-02-21T14:44:11.045Z,25
2017-02-21T14:46:34.604Z,25
2017-02-21T14:48:58.296Z,20
2017-02-21T14:51:22.559Z,20
2017-02-21T14:53:47.345Z,15
2017-02-21T14:56:11.367Z,15
2017-02-21T14:58:35.117Z,15
2017-02-21T15:00:59.062Z,15
2017-02-21T15:03:15.138Z,10
2017-02-21T15:05:38.607Z,10
2017-02-21T15:08:02.409Z,10
2017-02-21T15:10:26.370Z,10
2017-02-21T15:12:51.585Z,10
2017-02-21T15:15:15.665Z,10
2017-02-21T15:17:40.145Z,10
2017-02-21T15:20:03.929Z,10
2017-02-21T15:22:27.703Z,10
2017-02-21T15:24:51.390Z,10
2017-02-21T15:27:15.138Z,10
2017-02-21T15:29:55.296Z,10
2017-02-21T15:32:19.656Z,10
2017-02-21T15:34:46.024Z,5
2017-02-21T15:37:14.320Z,5
2017-02-21T15:39:40.287Z,5
2017-02-21T15:42:06.385Z,5
2017-02-21T15:44:29.831Z,5
2017-02-21T15:46:55.302Z,5
2017-02-21T15:49:19.907Z,5
2017-02-21T15:51:43.730Z,5
2017-02-21T15:54:07.345Z,5
2017-02-21T15:56:31.327Z,5
2017-02-21T15:58:55.934Z,5
2017-02-21T16:01:19.581Z,5
2017-02-21T16:03:43.195Z,5
2017-02-21T16:06:07.018Z,5
2017-02-21T16:08:42.674Z,5
2017-02-21T16:11:06.436Z,5
2017-02-21T16:13:30.300Z,5
2017-02-21T16:15:53.996Z,5
2017-02-21T16:18:18.771Z,0
2017-02-21T16:20:42.429Z,0
2017-02-21T16:23:06.307Z,0
2017-02-21T16:25:31.188Z,0
2017-02-21T16:27:54.656Z,0
2017-02-21T16:30:18.231Z,0
2017-02-21T16:32:41.818Z,0
2017-02-21T16:35:06.705Z,0
2017-02-21T16:37:30.475Z,0
2017-02-21T16:39:56.396Z,0
2017-02-21T16:42:20.022Z,0
2017-02-21T16:44:35.120Z,0
2017-02-21T16:46:58.690Z,0
2017-02-21T16:51:25.464Z,0
2017-02-21T16:53:49.223Z,0
2017-02-21T16:56:12.796Z,0
2017-02-21T16:58:39.785Z,0
2017-02-21T17:01:03.363Z,0
2017-02-21T17:03:26.900Z,0
2017-02-21T17:05:50.369Z,0
2017-02-21T17:08:13.907Z,0
2017-02-21T17:10:37.370Z,0
2017-02-21T17:12:52.400Z,0
2017-02-21T17:15:15.785Z,0
2017-02-21T17:17:39.242Z,0
2017-02-21T17:20:06.423Z,0
2017-02-21T17:22:30.956Z,0
2017-02-21T17:24:54.618Z,0
2017-02-21T17:27:09.685Z,0
2017-02-21T17:29:33.144Z,0
2017-02-21T17:31:56.621Z,0
2017-02-21T17:34:21.384Z,0
2017-02-21T17:36:47.236Z,0
2017-02-21T17:39:10.860Z,0
2017-02-21T17:41:25.890Z,0
2017-02-21T17:43:49.449Z,0
2017-02-21T17:46:13.014Z,0
2017-02-21T17:48:53.817Z,0
2017-02-21T17:51:22.132Z,0
2017-02-21T17:56:02.801Z,0
2017-02-21T17:58:28.588Z,0
2017-02-21T18:00:51.437Z,0
2017-02-21T18:03:15.107Z,0
2017-02-21T18:05:38.735Z,0
2017-02-21T18:11:53.988Z,0
2017-02-21T18:21:34.404Z,0
2017-02-21T18:30:58.350Z,0
2017-02-21T18:33:22.295Z,0
2017-02-21T18:35:45.765Z,0
2017-02-21T18:38:09.531Z,0
2017-02-21T18:40:35.074Z,0
2017-02-21T18:47:35.051Z,0
2017-02-21T18:49:59.443Z,0
2017-02-21T18:52:23.325Z,0
2017-02-21T18:57:12.026Z,0
2017-02-21T18:59:35.573Z,0
2017-02-21T19:01:59.188Z,0
2017-02-21T19:04:23.073Z,0
2017-02-21T19:06:47.695Z,0
2017-02-21T19:09:17.689Z,0
2017-02-21T19:11:41.011Z,0
2017-02-21T19:17:25.118Z,0
2017-02-21T19:20:04.558Z,0
2017-02-21T19:22:28.652Z,0
2017-02-21T19:28:07.390Z,0
2017-02-21T19:30:30.798Z,0
2017-02-21T19:32:54.210Z,0
2017-02-21T19:37:28.042Z,0
2017-02-21T19:39:51.523Z,0
2017-02-21T19:42:14.951Z,0
2017-02-21T19:44:38.375Z,0
2017-02-21T19:47:01.714Z,0
2017-02-21T19:49:25.089Z,0
2017-02-21T19:51:48.458Z,0
2017-02-21T19:54:11.897Z,0
2017-02-21T19:56:35.218Z,0
2017-02-21T19:58:58.571Z,0
2017-02-21T20:01:21.970Z,0
2017-02-21T20:03:45.339Z,0
2017-02-21T20:06:08.707Z,0
2017-02-21T20:08:32.005Z,0
2017-02-21T20:10:55.442Z,0
2017-02-21T20:13:18.857Z,0
2017-02-21T20:15:42.195Z,0
2017-02-21T20:18:06.626Z,0
2017-02-21T20:20:30.953Z,0
2017-02-21T20:22:54.376Z,0
2017-02-21T20:25:17.709Z,0
2017-02-21T20:27:41.107Z,0
2017-02-21T20:31:40.238Z,0
2017-02-21T20:34:03.655Z,0
2017-02-21T20:36:27.055Z,0
2017-02-21T20:38:50.449Z,0
2017-02-21T20:41:13.877Z,0
2017-02-21T20:43:37.305Z,0
2017-02-21T20:48:02.424Z,0
2017-02-21T20:50:25.835Z,0
2017-02-21T20:52:49.288Z,0
2017-02-21T20:55:12.624Z,0
2017-02-21T20:57:36.065Z,0
2017-02-21T20:59:59.456Z,0
2017-02-21T21:06:35.123Z,0
2017-02-21T21:08:58.599Z,0
2017-02-21T21:11:21.946Z,0
2017-02-21T21:13:45.319Z,0
2017-02-21T21:16:08.751Z,0
2017-02-21T21:18:32.095Z,0
2017-02-21T21:20:55.564Z,0
2017-02-21T21:23:18.965Z,0
2017-02-21T21:25:42.466Z,0
2017-02-21T21:28:05.840Z,0
2017-02-21T21:30:30.239Z,0
2017-02-21T21:32:53.594Z,0
2017-02-21T21:35:16.989Z,0
2017-02-21T21:37:41.497Z,0
2017-02-21T21:40:04.640Z,0
2017-02-21T21:42:27.928Z,0
2017-02-21T21:44:51.332Z,0
2017-02-21T21:47:14.687Z,0
2017-02-21T21:49:38.166Z,0
2017-02-21T21:52:01.477Z,0
2017-02-21T21:54:24.732Z,0
2017-02-21T21:56:48.159Z,0
2017-02-21T21:59:11.649Z,0
2017-02-21T22:01:34.876Z,0
2017-02-21T22:03:58.261Z,0
2017-02-21T22:06:21.635Z,0
2017-02-21T22:08:45.106Z,0
2017-02-21T22:11:08.463Z,0
2017-02-21T22:13:31.937Z,0
2017-02-21T22:15:55.387Z,0
2017-02-21T22:18:10.462Z,0
2017-02-21T22:20:33.939Z,0
2017-02-21T22:22:57.418Z,0
2017-02-21T22:25:20.895Z,0
2017-02-21T22:27:44.362Z,0
2017-02-21T22:30:07.810Z,0
2017-02-21T22:32:31.295Z,0
2017-02-21T22:34:54.761Z,0
2017-02-21T22:37:18.227Z,0
2017-02-21T22:39:41.718Z,0
2017-02-21T22:42:05.142Z,0
2017-02-21T22:46:29.800Z,0
2017-02-21T22:48:53.321Z,0
2017-02-21T22:51:16.820Z,0
2017-02-21T22:53:40.286Z,0
2017-02-21T22:56:03.739Z,0
2017-02-21T22:58:27.205Z,0
2017-02-21T23:02:52.356Z,0
2017-02-21T23:05:15.778Z,0
2017-02-21T23:07:39.274Z,0
2017-02-21T23:10:02.723Z,0
2017-02-21T23:14:27.377Z,0
2017-02-21T23:16:50.804Z,0
2017-02-21T23:20:50.069Z,0
2017-02-21T23:25:23.759Z,0
2017-02-21T23:27:47.223Z,0
2017-02-21T23:30:10.670Z,0
2017-02-21T23:32:34.162Z,0
2017-02-21T23:34:57.614Z,0
2017-02-21T23:37:20.978Z,0
2017-02-21T23:43:47.413Z,0
2017-02-21T23:46:10.823Z,0
2017-02-21T23:48:34.271Z,0
2017-02-21T23:50:57.737Z,0
2017-02-21T23:53:21.199Z,0
2017-02-21T23:55:44.674Z,0
2017-02-21T23:58:08.167Z,0
